Republica Dominicana

Metar

SADR31 MDSD 120700Z RTD
METAR

METAR MDST 120700Z 09005KT 9999 SCT018 25/23 Q1014=
METAR MDPC 120700Z 10010KT 9999 FEW016CB BKN018 BKN300 27/24 Q1014
CB/E/N=
METAR MDSD 120700Z 36004KT 9999 BKN016 24/23 Q1014=




Tamaño letra

Contraste

Otros